Time;durP1;ratioP1;P1;durP2;ratioP2;P2;SDS_P1;SDS_P2;PMS_P1;PMS_P2;Temp;Humidity;BMP_temperature;BMP_pressure;BME280_temperature;BME280_humidity;BME280_pressure;Samples;Min_cycle;Max_cycle;Signal;HPM_P1;HPM_P2
2024/03/30 00:01:40;;;;;;;3.58;2.17;;;9.50;1.00;;;;;;4965985;28;20420;-63
2024/03/30 00:04:06;;;;;;;8.18;1.77;;;9.50;1.00;;;;;;4964583;28;20055;-63
2024/03/30 00:06:32;;;;;;;2.90;1.98;;;9.60;1.00;;;;;;4965983;28;20035;-63
2024/03/30 00:08:57;;;;;;;2.25;1.83;;;9.60;1.00;;;;;;4965103;28;20137;-63
2024/03/30 00:11:23;;;;;;;2.42;1.52;;;9.60;1.00;;;;;;4965817;28;20651;-63
2024/03/30 00:13:49;;;;;;;2.15;1.95;;;9.60;1.00;;;;;;4965798;28;20043;-63
2024/03/30 00:16:15;;;;;;;2.10;1.95;;;9.60;1.00;;;;;;4962203;28;20567;-64
2024/03/30 00:18:42;;;;;;;4.25;1.70;;;9.60;1.00;;;;;;4965859;28;20112;-63
2024/03/30 00:21:15;;;;;;;4.32;2.15;;;9.60;1.00;;;;;;4964621;28;20085;-63
2024/03/30 00:23:41;;;;;;;2.40;2.08;;;9.50;1.00;;;;;;4966362;28;20337;-63
2024/03/30 00:26:08;;;;;;;5.55;2.00;;;9.50;1.00;;;;;;4962173;28;20442;-63
2024/03/30 00:28:35;;;;;;;4.88;1.80;;;9.50;1.00;;;;;;4954371;28;20508;-63
2024/03/30 00:31:00;;;;;;;2.00;1.90;;;9.40;1.00;;;;;;4964369;28;20046;-63
2024/03/30 00:33:27;;;;;;;3.08;1.85;;;9.40;1.00;;;;;;4966032;28;20046;-63
2024/03/30 00:35:55;;;;;;;2.65;1.80;;;9.30;1.00;;;;;;4958104;28;20500;-63
2024/03/30 00:38:21;;;;;;;1.88;1.75;;;9.20;1.00;;;;;;4963588;28;20462;-63
2024/03/30 00:40:54;;;;;;;3.08;1.92;;;9.20;1.00;;;;;;4962795;28;20505;-63
2024/03/30 00:43:20;;;;;;;1.98;1.75;;;9.10;1.00;;;;;;4976792;28;20070;-63
2024/03/30 00:45:46;;;;;;;2.30;2.05;;;9.00;1.00;;;;;;4965000;28;20591;-63
2024/03/30 00:48:13;;;;;;;2.03;1.90;;;9.00;1.00;;;;;;4964832;28;20046;-63
2024/03/30 00:50:39;;;;;;;1.85;1.75;;;8.90;1.00;;;;;;4964579;28;20118;-63
2024/03/30 00:53:04;;;;;;;2.60;1.90;;;8.90;1.00;;;;;;4945085;29;20508;-63
2024/03/30 00:55:31;;;;;;;2.15;1.67;;;8.80;1.00;;;;;;4963161;28;20129;-63
2024/03/30 00:57:57;;;;;;;2.00;1.83;;;8.80;1.00;;;;;;4963028;28;20109;-63
2024/03/30 01:00:23;;;;;;;2.03;1.83;;;8.80;1.00;;;;;;4963793;28;20552;-63
2024/03/30 01:02:49;;;;;;;4.60;2.20;;;8.70;1.00;;;;;;4961972;28;20065;-63
2024/03/30 01:05:15;;;;;;;2.38;1.92;;;8.60;1.00;;;;;;4957876;28;20066;-63
2024/03/30 01:07:41;;;;;;;3.13;1.77;;;8.60;1.00;;;;;;4965053;28;20094;-63
2024/03/30 01:10:11;;;;;;;2.30;2.10;;;8.50;1.00;;;;;;4963721;28;20437;-63
2024/03/30 01:12:38;;;;;;;2.65;1.85;;;8.50;1.00;;;;;;4964563;28;20346;-63
2024/03/30 01:15:04;;;;;;;3.90;2.10;;;8.40;1.00;;;;;;4963475;28;20616;-63
2024/03/30 01:17:30;;;;;;;2.55;2.00;;;8.40;1.00;;;;;;4963436;28;20051;-63
2024/03/30 01:19:56;;;;;;;3.40;1.77;;;8.40;13.70;;;;;;4963175;28;20086;-63
2024/03/30 01:22:23;;;;;;;2.33;2.10;;;8.40;58.90;;;;;;4962704;28;20070;-63
2024/03/30 01:24:49;;;;;;;2.25;2.05;;;8.40;86.40;;;;;;4963740;28;20200;-63
2024/03/30 01:27:18;;;;;;;2.55;2.00;;;8.40;98.60;;;;;;4964204;28;20572;-63
2024/03/30 01:29:44;;;;;;;5.38;2.30;;;8.40;99.90;;;;;;4959117;28;20433;-63
2024/03/30 01:32:10;;;;;;;2.15;1.95;;;8.40;99.90;;;;;;4963978;28;20496;-63
2024/03/30 01:34:36;;;;;;;2.70;2.00;;;8.40;99.90;;;;;;4954442;28;20044;-63
2024/03/30 01:37:22;;;;;;;2.47;2.28;;;8.40;99.90;;;;;;4964736;28;20047;-63
2024/03/30 01:39:47;;;;;;;3.08;1.80;;;8.40;99.90;;;;;;4963579;28;20553;-63
2024/03/30 01:42:13;;;;;;;2.55;2.38;;;8.40;99.90;;;;;;4964479;28;20114;-63
2024/03/30 01:44:41;;;;;;;5.55;2.22;;;8.40;99.90;;;;;;4962531;28;20529;-63
2024/03/30 01:47:08;;;;;;;4.82;2.10;;;8.40;99.90;;;;;;4963189;28;20049;-63
2024/03/30 01:49:35;;;;;;;5.10;2.10;;;8.40;99.90;;;;;;4964339;28;20057;-63
2024/03/30 01:52:03;;;;;;;3.67;1.95;;;8.40;99.90;;;;;;4963480;28;20058;-63
2024/03/30 01:54:30;;;;;;;2.50;2.00;;;8.40;99.90;;;;;;4962985;28;20576;-63
2024/03/30 01:56:57;;;;;;;2.60;1.83;;;8.50;99.90;;;;;;4963528;28;20113;-63
2024/03/30 01:59:23;;;;;;;2.22;2.13;;;8.50;99.90;;;;;;4963459;28;20516;-63
2024/03/30 02:01:52;;;;;;;3.47;2.33;;;8.50;99.90;;;;;;4959642;28;20051;-63
2024/03/30 02:04:18;;;;;;;5.03;2.13;;;8.60;99.90;;;;;;4959034;28;20054;-63
2024/03/30 02:06:45;;;;;;;4.05;2.55;;;8.60;99.90;;;;;;4962840;28;20414;-63
2024/03/30 02:09:11;;;;;;;3.28;2.10;;;8.60;99.90;;;;;;4961603;28;20444;-63
2024/03/30 02:11:40;;;;;;;2.08;1.98;;;8.70;99.90;;;;;;4964628;28;20057;-64
2024/03/30 02:14:07;;;;;;;2.78;2.28;;;8.70;99.90;;;;;;4961055;28;20047;-63
2024/03/30 02:16:35;;;;;;;2.15;2.05;;;8.60;99.90;;;;;;4961615;28;20039;-63
2024/03/30 02:19:03;;;;;;;2.13;2.03;;;8.70;99.90;;;;;;4962021;28;20674;-63
2024/03/30 02:21:31;;;;;;;4.32;2.40;;;8.60;99.90;;;;;;4963097;28;20042;-63
2024/03/30 02:23:56;;;;;;;4.15;2.05;;;8.60;99.90;;;;;;4962986;28;22017;-63
2024/03/30 02:26:22;;;;;;;2.28;2.13;;;8.60;99.90;;;;;;4962791;28;20457;-63
2024/03/30 02:28:51;;;;;;;2.17;1.98;;;8.60;99.90;;;;;;4964024;28;20046;-63
2024/03/30 02:31:18;;;;;;;2.13;2.00;;;8.60;99.90;;;;;;4960001;28;20058;-63
2024/03/30 02:33:44;;;;;;;3.55;2.00;;;8.60;99.90;;;;;;4962803;28;20197;-63
2024/03/30 02:36:11;;;;;;;3.20;2.28;;;8.70;99.90;;;;;;4962987;28;20511;-63
2024/03/30 02:38:37;;;;;;;3.60;2.00;;;8.70;99.90;;;;;;4962961;28;20054;-63
2024/03/30 02:41:03;;;;;;;2.22;2.03;;;8.70;99.90;;;;;;4963129;28;20042;-63
2024/03/30 02:43:30;;;;;;;3.20;1.88;;;8.70;99.90;;;;;;4962071;28;20053;-63
2024/03/30 02:45:56;;;;;;;4.75;2.10;;;8.70;99.90;;;;;;4961434;28;20065;-63
2024/03/30 02:48:22;;;;;;;2.20;2.00;;;8.70;99.90;;;;;;4962747;28;20051;-63
2024/03/30 02:50:47;;;;;;;2.00;1.90;;;8.70;99.90;;;;;;4963119;28;20053;-63
2024/03/30 02:53:13;;;;;;;2.42;1.73;;;8.60;99.90;;;;;;4963391;28;20074;-63
2024/03/30 02:55:39;;;;;;;2.13;1.90;;;8.60;99.90;;;;;;4974005;28;20485;-63
2024/03/30 02:58:05;;;;;;;2.85;2.17;;;8.60;99.90;;;;;;4977564;28;20513;-63
2024/03/30 03:00:32;;;;;;;2.65;1.70;;;8.60;99.90;;;;;;4962032;28;20125;-63
2024/03/30 03:02:58;;;;;;;7.65;2.35;;;8.70;99.90;;;;;;4963039;28;20138;-63
2024/03/30 03:05:24;;;;;;;2.22;1.90;;;8.70;99.90;;;;;;4958724;28;20050;-63
2024/03/30 03:07:51;;;;;;;2.30;2.10;;;8.80;99.90;;;;;;4963694;28;20057;-63
2024/03/30 03:10:17;;;;;;;1.92;1.83;;;8.90;99.90;;;;;;4962735;28;20046;-63
2024/03/30 03:12:43;;;;;;;2.15;1.98;;;9.00;99.90;;;;;;4962570;28;20094;-63
2024/03/30 03:15:10;;;;;;;2.92;1.85;;;9.00;99.90;;;;;;4962075;28;20152;-63
2024/03/30 03:17:36;;;;;;;2.55;2.35;;;9.10;99.90;;;;;;4962087;28;20420;-63
2024/03/30 03:20:05;;;;;;;7.25;2.10;;;9.10;99.90;;;;;;4962400;28;20118;-63
2024/03/30 03:22:33;;;;;;;2.42;2.10;;;9.10;99.90;;;;;;4962578;28;20050;-63
2024/03/30 03:24:59;;;;;;;2.60;2.38;;;9.20;99.90;;;;;;4961126;28;20066;-63
2024/03/30 03:27:24;;;;;;;3.83;2.47;;;9.10;99.90;;;;;;4947146;28;20089;-63
2024/03/30 03:29:50;;;;;;;4.82;2.22;;;9.10;99.90;;;;;;4962973;28;20050;-62
2024/03/30 03:32:16;;;;;;;5.75;2.55;;;9.20;99.90;;;;;;4965514;28;20046;-63
2024/03/30 03:34:42;;;;;;;2.50;2.20;;;9.20;99.90;;;;;;4965720;28;20049;-63
2024/03/30 03:37:08;;;;;;;1.90;1.80;;;9.30;99.90;;;;;;4966540;28;20043;-63
2024/03/30 03:39:33;;;;;;;3.95;2.60;;;9.30;99.90;;;;;;4965130;28;20515;-63
2024/03/30 03:41:59;;;;;;;5.22;2.53;;;9.20;99.90;;;;;;4964134;28;20126;-63
2024/03/30 03:44:25;;;;;;;2.70;2.50;;;9.20;99.90;;;;;;4965155;28;20426;-63
2024/03/30 03:46:52;;;;;;;3.90;2.30;;;9.30;99.90;;;;;;4966414;28;20042;-63
2024/03/30 03:49:17;;;;;;;2.38;2.20;;;9.30;99.90;;;;;;4966020;28;20118;-63
2024/03/30 03:51:43;;;;;;;2.80;2.35;;;9.20;99.90;;;;;;4965662;28;20175;-63
2024/03/30 03:54:09;;;;;;;2.85;2.65;;;9.30;99.90;;;;;;4966523;28;20063;-63
2024/03/30 03:56:35;;;;;;;3.00;2.65;;;9.20;99.90;;;;;;4964197;28;20039;-63
2024/03/30 03:59:01;;;;;;;2.92;2.30;;;9.20;99.90;;;;;;4966145;28;20039;-63
2024/03/30 04:01:27;;;;;;;3.00;2.10;;;9.20;99.90;;;;;;4965156;28;20047;-63
2024/03/30 04:03:53;;;;;;;3.35;2.45;;;9.30;99.90;;;;;;4966253;28;20063;-63
2024/03/30 04:06:25;;;;;;;3.85;2.63;;;9.30;99.90;;;;;;4958470;28;20448;-63
2024/03/30 04:08:50;;;;;;;2.47;2.28;;;9.40;99.90;;;;;;4965321;28;20188;-63
2024/03/30 04:11:16;;;;;;;3.78;2.83;;;9.30;99.90;;;;;;4962295;28;20076;-63
2024/03/30 04:13:43;;;;;;;4.03;2.92;;;9.40;99.90;;;;;;4965531;28;20055;-63
2024/03/30 04:16:09;;;;;;;5.00;2.53;;;9.40;99.90;;;;;;4973807;28;20047;-63
2024/03/30 04:18:36;;;;;;;3.08;2.70;;;9.40;99.90;;;;;;4965611;28;20050;-63
2024/03/30 04:21:05;;;;;;;2.53;2.33;;;9.40;99.90;;;;;;4965105;28;20051;-63
2024/03/30 04:23:31;;;;;;;5.25;2.63;;;9.40;99.90;;;;;;4952975;28;20409;-63
2024/03/30 04:26:18;;;;;;;4.38;2.80;;;9.40;99.90;;;;;;4965848;28;20046;-63
2024/03/30 04:28:44;;;;;;;5.00;2.58;;;9.40;99.90;;;;;;4965444;28;20154;-63
2024/03/30 04:31:10;;;;;;;3.97;2.88;;;9.40;99.90;;;;;;4964662;28;20489;-63
2024/03/30 04:33:36;;;;;;;6.50;2.90;;;9.40;99.90;;;;;;4964558;28;20125;-63
2024/03/30 04:36:04;;;;;;;3.53;2.97;;;9.40;99.90;;;;;;4964897;28;20046;-63
2024/03/30 04:38:30;;;;;;;3.65;3.30;;;9.40;99.90;;;;;;4965481;28;20054;-64
2024/03/30 04:41:07;;;;;;;3.88;3.20;;;9.40;99.90;;;;;;4964101;28;20055;-63
2024/03/30 04:43:35;;;;;;;3.55;3.25;;;9.40;99.90;;;;;;4965305;28;20050;-63
2024/03/30 04:46:04;;;;;;;5.93;3.28;;;9.40;99.90;;;;;;4956679;28;20560;-63
2024/03/30 04:48:30;;;;;;;3.80;3.50;;;9.40;99.90;;;;;;4965415;28;20065;-63
2024/03/30 04:50:59;;;;;;;4.95;3.42;;;9.30;99.90;;;;;;4964831;28;20473;-64
2024/03/30 04:53:29;;;;;;;4.10;2.80;;;9.40;99.90;;;;;;4964900;28;20112;-64
2024/03/30 04:55:59;;;;;;;;;;;9.30;99.90;;;;;;4965860;28;20425;-63
2024/03/30 04:58:27;;;;;;;8.15;3.10;;;9.30;99.90;;;;;;4964628;28;20553;-63
2024/03/30 05:00:54;;;;;;;5.72;3.42;;;9.30;99.90;;;;;;4964378;28;20226;-64
2024/03/30 05:03:20;;;;;;;4.30;3.90;;;9.30;99.90;;;;;;4960162;28;20114;-63
2024/03/30 05:05:47;;;;;;;3.80;3.42;;;9.30;99.90;;;;;;4964512;28;20598;-63
2024/03/30 05:08:14;;;;;;;4.50;4.07;;;9.30;99.90;;;;;;4963827;28;20136;-63
2024/03/30 05:10:41;;;;;;;4.80;3.92;;;9.30;99.90;;;;;;4964187;28;20050;-63
2024/03/30 05:13:07;;;;;;;5.47;3.30;;;9.30;99.90;;;;;;4964815;28;20042;-64
2024/03/30 05:15:37;;;;;;;8.15;4.38;;;9.30;99.90;;;;;;4964438;28;20085;-64
2024/03/30 05:18:07;;;;;;;5.35;4.20;;;9.20;99.90;;;;;;4966059;28;20074;-63
2024/03/30 05:20:50;;;;;;;7.28;4.13;;;9.20;99.90;;;;;;4956146;28;20046;-64
2024/03/30 05:23:20;;;;;;;6.93;4.28;;;9.20;99.90;;;;;;4964104;28;20614;-64
2024/03/30 05:25:55;;;;;;;9.93;4.35;;;9.30;99.90;;;;;;4963774;28;20055;-63
2024/03/30 05:28:23;;;;;;;6.93;4.00;;;9.30;99.90;;;;;;4956034;28;20054;-64
2024/03/30 05:30:50;;;;;;;4.63;3.88;;;9.30;99.90;;;;;;4964619;28;20066;-64
2024/03/30 05:33:20;;;;;;;9.10;4.25;;;9.20;99.90;;;;;;4964212;28;20093;-64
2024/03/30 05:35:47;;;;;;;5.35;4.32;;;9.30;99.90;;;;;;4960413;28;20517;-63
2024/03/30 05:38:13;;;;;;;7.15;4.28;;;9.20;99.90;;;;;;4962276;28;20102;-64
2024/03/30 05:40:42;;;;;;;6.80;4.03;;;9.20;99.90;;;;;;4964095;28;20397;-63
2024/03/30 05:43:08;;;;;;;4.82;4.28;;;9.20;99.90;;;;;;4962449;28;20050;-64
2024/03/30 05:45:36;;;;;;;4.60;4.15;;;9.20;99.90;;;;;;4963920;28;20428;-64
2024/03/30 05:48:01;;;;;;;5.35;4.40;;;9.20;99.90;;;;;;4963740;28;20715;-63
2024/03/30 05:50:28;;;;;;;8.48;4.05;;;9.20;99.90;;;;;;4961419;28;20477;-63
2024/03/30 05:52:54;;;;;;;8.85;4.22;;;9.20;99.90;;;;;;4958613;28;20053;-63
2024/03/30 05:55:20;;;;;;;4.35;3.90;;;9.20;99.90;;;;;;4963410;28;20042;-64
2024/03/30 05:57:47;;;;;;;5.45;4.18;;;9.20;99.90;;;;;;4962999;28;20567;-63
2024/03/30 06:00:14;;;;;;;4.82;3.95;;;9.20;99.90;;;;;;4963995;28;20054;-64
2024/03/30 06:02:42;;;;;;;7.57;4.43;;;9.20;99.90;;;;;;4963625;28;20480;-63
2024/03/30 06:05:08;;;;;;;8.95;4.15;;;9.20;99.90;;;;;;4962825;28;20054;-64
2024/03/30 06:07:35;;;;;;;5.82;4.38;;;9.20;99.90;;;;;;4963406;28;20042;-63
2024/03/30 06:10:00;;;;;;;5.68;5.03;;;9.30;99.90;;;;;;4963442;28;20602;-63
2024/03/30 06:12:27;;;;;;;6.93;4.40;;;9.20;99.90;;;;;;4963935;28;20046;-64
2024/03/30 06:14:52;;;;;;;5.03;3.88;;;9.20;99.90;;;;;;4962652;28;20057;-64
2024/03/30 06:17:18;;;;;;;5.88;4.22;;;9.20;99.90;;;;;;4964298;28;20046;-64
2024/03/30 06:19:44;;;;;;;5.57;4.07;;;9.20;99.90;;;;;;4957339;28;20497;-64
2024/03/30 06:22:10;;;;;;;5.38;4.03;;;9.20;99.90;;;;;;4963937;28;20133;-64
2024/03/30 06:24:39;;;;;;;4.88;3.78;;;9.20;99.90;;;;;;4963014;28;20355;-64
2024/03/30 06:27:08;;;;;;;4.00;3.70;;;9.20;99.90;;;;;;4945734;28;20109;-63
2024/03/30 06:29:35;;;;;;;4.53;4.13;;;9.20;99.90;;;;;;4960985;28;20104;-63
2024/03/30 06:32:01;;;;;;;5.40;3.83;;;9.20;99.90;;;;;;4963182;28;20047;-64
2024/03/30 06:34:27;;;;;;;6.07;3.83;;;9.30;99.90;;;;;;4961798;28;20047;-63
2024/03/30 06:36:53;;;;;;;7.95;4.25;;;9.20;99.90;;;;;;4962371;28;20081;-64
2024/03/30 06:39:19;;;;;;;5.60;4.25;;;9.30;99.90;;;;;;4956939;28;20062;-64
2024/03/30 06:44:30;;;;;;;4.63;4.18;;;9.30;99.90;;;;;;4962514;28;20572;-63
2024/03/30 06:46:55;;;;;;;7.03;4.40;;;9.30;99.90;;;;;;4952410;28;20047;-64
2024/03/30 06:49:22;;;;;;;9.55;4.10;;;9.20;99.90;;;;;;4956559;28;20569;-64
2024/03/30 06:51:49;;;;;;;4.25;3.85;;;9.30;99.90;;;;;;4963805;28;20114;-64
2024/03/30 06:54:15;;;;;;;4.40;4.00;;;9.30;99.90;;;;;;4959549;28;20098;-64
2024/03/30 06:56:41;;;;;;;4.10;3.72;;;9.40;99.90;;;;;;4963739;28;20057;-64
2024/03/30 06:59:08;;;;;;;4.43;4.03;;;9.40;99.90;;;;;;4962342;28;20042;-63
2024/03/30 07:01:33;;;;;;;7.70;4.10;;;9.40;99.90;;;;;;4962270;28;20053;-64
2024/03/30 07:04:00;;;;;;;5.43;3.95;;;9.40;99.90;;;;;;4959667;28;20058;-63
2024/03/30 07:06:26;;;;;;;4.20;3.80;;;9.40;99.90;;;;;;4962193;28;20121;-64
2024/03/30 07:08:57;;;;;;;5.88;3.75;;;9.40;99.90;;;;;;4962288;28;20062;-63
2024/03/30 07:11:23;;;;;;;4.45;4.05;;;9.40;99.90;;;;;;4960246;28;20051;-64
2024/03/30 07:13:50;;;;;;;6.13;3.50;;;9.50;99.90;;;;;;4962050;28;20054;-63
2024/03/30 07:16:18;;;;;;;7.00;3.33;;;9.50;99.90;;;;;;4961146;28;20054;-64
2024/03/30 07:18:45;;;;;;;4.82;3.38;;;9.50;99.90;;;;;;4944866;28;20055;-64
2024/03/30 07:21:11;;;;;;;4.25;3.42;;;9.60;99.90;;;;;;4961059;28;20034;-64
2024/03/30 07:23:36;;;;;;;3.88;3.58;;;9.70;99.90;;;;;;4959294;28;20054;-63
2024/03/30 07:26:05;;;;;;;3.47;3.17;;;9.70;99.90;;;;;;4961900;28;20051;-64
2024/03/30 07:28:32;;;;;;;3.45;3.15;;;9.80;99.90;;;;;;4961694;28;20050;-64
2024/03/30 07:31:05;;;;;;;3.42;3.17;;;9.80;99.90;;;;;;4955915;28;20126;-63
2024/03/30 07:33:34;;;;;;;4.03;3.05;;;9.80;99.90;;;;;;4959866;28;20047;-64
2024/03/30 07:36:00;;;;;;;2.65;2.45;;;9.90;99.90;;;;;;4962825;28;20043;-63
2024/03/30 07:38:32;;;;;;;3.20;2.90;;;9.90;99.90;;;;;;4961171;28;20136;-63
2024/03/30 07:40:58;;;;;;;3.17;2.88;;;9.80;99.90;;;;;;4962452;28;20050;-63
2024/03/30 07:43:24;;;;;;;5.63;3.28;;;9.90;99.90;;;;;;4961693;28;20047;-63
2024/03/30 07:45:51;;;;;;;7.93;3.22;;;10.00;99.90;;;;;;4962429;28;20051;-64
2024/03/30 07:48:17;;;;;;;4.38;2.95;;;10.10;99.90;;;;;;4962000;28;20078;-63
2024/03/30 07:50:43;;;;;;;4.53;2.95;;;10.10;99.90;;;;;;4962023;28;20043;-64
2024/03/30 07:53:09;;;;;;;3.58;3.28;;;10.20;99.90;;;;;;4961963;28;20058;-63
2024/03/30 07:55:34;;;;;;;5.63;3.03;;;10.20;99.90;;;;;;4960991;28;20051;-63
2024/03/30 07:58:00;;;;;;;3.50;3.25;;;10.30;99.90;;;;;;4960193;28;20050;-63
2024/03/30 08:00:26;;;;;;;4.10;3.70;;;10.50;99.90;;;;;;4962408;28;20047;-64
2024/03/30 08:02:59;;;;;;;7.25;4.20;;;10.60;99.90;;;;;;4961285;28;20055;-63
2024/03/30 08:05:29;;;;;;;6.38;3.70;;;10.70;99.90;;;;;;4962871;28;20058;-63
2024/03/30 08:07:55;;;;;;;7.70;3.97;;;10.80;99.90;;;;;;4952695;28;20058;-64
2024/03/30 08:10:22;;;;;;;4.70;4.30;;;11.00;99.90;;;;;;4959639;28;20055;-64
2024/03/30 08:12:51;;;;;;;5.65;4.53;;;11.00;99.90;;;;;;4961425;28;20421;-63
2024/03/30 08:15:17;;;;;;;7.30;5.88;;;11.00;99.90;;;;;;4964322;28;20475;-64
2024/03/30 08:17:44;;;;;;;8.52;5.93;;;11.00;99.90;;;;;;4963944;28;20070;-63
2024/03/30 08:20:10;;;;;;;8.27;6.72;;;11.10;99.90;;;;;;4966022;28;20047;-64
2024/03/30 08:22:40;;;;;;;11.10;7.80;;;11.20;99.90;;;;;;4963709;28;20058;-63
2024/03/30 08:25:06;;;;;;;12.52;6.78;;;11.20;99.90;;;;;;4980283;28;20055;-63
2024/03/30 08:27:35;;;;;;;9.70;6.93;;;11.30;99.90;;;;;;4965519;28;20521;-63
2024/03/30 08:30:04;;;;;;;7.72;5.90;;;11.40;99.90;;;;;;4964855;28;20046;-63
2024/03/30 08:32:30;;;;;;;8.38;6.68;;;11.40;99.90;;;;;;4964314;28;20049;-63
2024/03/30 08:34:56;;;;;;;9.32;6.03;;;11.50;99.90;;;;;;4965073;28;20067;-63
2024/03/30 08:37:23;;;;;;;9.10;6.43;;;11.60;99.90;;;;;;4962281;28;20082;-63
2024/03/30 08:39:48;;;;;;;9.00;5.82;;;11.70;99.90;;;;;;4965499;28;20286;-63
2024/03/30 08:42:14;;;;;;;10.73;6.25;;;11.90;99.90;;;;;;4963440;28;20046;-63
2024/03/30 08:44:40;;;;;;;7.28;5.28;;;11.90;99.90;;;;;;4965293;28;20051;-63
2024/03/30 08:47:06;;;;;;;8.55;6.10;;;12.00;99.90;;;;;;4963605;28;20051;-63
2024/03/30 08:49:32;;;;;;;6.85;5.53;;;12.00;99.90;;;;;;4965609;28;20433;-64
2024/03/30 08:51:58;;;;;;;7.82;5.50;;;12.00;99.90;;;;;;4957293;28;20030;-64
2024/03/30 08:54:23;;;;;;;8.55;5.78;;;12.00;99.90;;;;;;4960850;28;20125;-64
2024/03/30 08:56:49;;;;;;;5.88;4.78;;;12.10;99.90;;;;;;4963794;28;20042;-64
2024/03/30 08:59:15;;;;;;;6.90;5.60;;;12.20;99.90;;;;;;4963606;28;20046;-63
2024/03/30 09:01:41;;;;;;;6.28;4.88;;;12.40;99.90;;;;;;4964215;28;20152;-64
2024/03/30 09:04:08;;;;;;;6.88;4.82;;;12.40;99.90;;;;;;4963488;28;20428;-64
2024/03/30 09:06:34;;;;;;;6.40;5.53;;;12.40;99.90;;;;;;4963628;28;20084;-63
2024/03/30 09:09:00;;;;;;;6.22;5.38;;;12.40;99.90;;;;;;4960745;28;20489;-64
2024/03/30 09:11:29;;;;;;;6.97;5.05;;;12.40;99.90;;;;;;4959234;28;20061;-63
2024/03/30 09:13:58;;;;;;;8.80;4.72;;;12.40;99.90;;;;;;4959820;28;20046;-63
2024/03/30 09:16:23;;;;;;;6.05;4.45;;;12.60;99.90;;;;;;4962728;28;20043;-63
2024/03/30 09:18:50;;;;;;;4.45;4.05;;;12.70;99.90;;;;;;4963509;28;20509;-63
2024/03/30 09:21:16;;;;;;;4.47;4.07;;;12.80;99.90;;;;;;4962805;28;20469;-64
2024/03/30 09:23:42;;;;;;;4.40;4.00;;;12.90;99.90;;;;;;4963739;28;20042;-64
2024/03/30 09:26:09;;;;;;;6.72;4.25;;;12.80;99.90;;;;;;4962974;28;20043;-64
2024/03/30 09:28:35;;;;;;;5.78;5.18;;;13.10;99.90;;;;;;4962873;28;20051;-63
2024/03/30 09:31:01;;;;;;;6.80;5.28;;;13.10;99.90;;;;;;4963269;28;20054;-63
2024/03/30 09:33:29;;;;;;;6.05;5.43;;;13.20;99.90;;;;;;4959295;28;20093;-63
2024/03/30 09:35:55;;;;;;;9.50;6.57;;;13.30;99.90;;;;;;4960033;28;20074;-63
2024/03/30 09:38:21;;;;;;;13.43;6.68;;;13.50;99.90;;;;;;4955299;28;20207;-63
2024/03/30 09:40:58;;;;;;;9.38;5.82;;;13.60;99.90;;;;;;4963398;28;20042;-63
2024/03/30 09:43:26;;;;;;;8.60;6.32;;;13.70;99.90;;;;;;4961935;28;20058;-63
2024/03/30 09:45:52;;;;;;;7.13;5.10;;;13.70;99.90;;;;;;4961471;28;20055;-63
2024/03/30 09:48:19;;;;;;;6.00;4.55;;;13.70;99.90;;;;;;4961207;28;20049;-63
2024/03/30 09:50:46;;;;;;;6.60;5.03;;;13.70;99.90;;;;;;4962511;28;20149;-63
2024/03/30 09:53:16;;;;;;;5.28;4.28;;;13.70;99.90;;;;;;4961667;28;20541;-63
2024/03/30 09:55:42;;;;;;;4.57;3.80;;;13.50;99.90;;;;;;4962453;28;20050;-63
2024/03/30 09:58:09;;;;;;;3.45;3.13;;;13.50;99.90;;;;;;4961968;28;20048;-63
2024/03/30 10:00:35;;;;;;;3.90;3.10;;;13.50;99.90;;;;;;4963136;28;20049;-63
2024/03/30 10:03:01;;;;;;;3.00;2.72;;;13.80;99.90;;;;;;4963147;28;20449;-63
2024/03/30 10:05:29;;;;;;;4.22;3.03;;;13.90;99.90;;;;;;4963391;28;20129;-63
2024/03/30 10:08:02;;;;;;;2.90;2.63;;;14.10;99.90;;;;;;4961186;28;20077;-63
2024/03/30 10:10:29;;;;;;;5.18;3.47;;;14.30;99.90;;;;;;4963672;28;20515;-63
2024/03/30 10:13:00;;;;;;;4.70;3.05;;;14.40;99.90;;;;;;4961308;28;20608;-63
2024/03/30 10:15:45;;;;;;;4.95;3.22;;;14.60;99.90;;;;;;4963808;28;20508;-63
2024/03/30 10:18:15;;;;;;;6.55;3.20;;;14.70;1.00;;;;;;4955677;28;20082;-63
2024/03/30 10:20:41;;;;;;;5.57;3.40;;;14.80;99.90;;;;;;4963747;28;20086;-63
2024/03/30 10:23:07;;;;;;;5.18;3.80;;;14.90;1.00;;;;;;4957755;28;20054;-64
2024/03/30 10:25:35;;;;;;;3.40;2.78;;;15.00;99.90;;;;;;4963226;28;20493;-63
2024/03/30 10:28:02;;;;;;;3.33;2.88;;;15.10;1.00;;;;;;4961246;28;20508;-63
2024/03/30 10:30:28;;;;;;;3.47;3.00;;;15.20;99.90;;;;;;4961840;28;20524;-63
2024/03/30 10:32:54;;;;;;;5.10;3.00;;;15.20;99.90;;;;;;4962946;28;20101;-63
2024/03/30 10:35:21;;;;;;;3.53;3.00;;;15.20;99.90;;;;;;4963027;28;20046;-63
2024/03/30 10:37:51;;;;;;;4.07;3.00;;;15.30;99.90;;;;;;4962337;28;20141;-62
2024/03/30 10:40:18;;;;;;;3.58;2.75;;;15.20;99.90;;;;;;4961477;28;20057;-63
2024/03/30 10:42:44;;;;;;;2.25;2.10;;;15.10;99.90;;;;;;4963034;28;20042;-63
2024/03/30 10:45:10;;;;;;;4.28;2.55;;;15.10;99.90;;;;;;4957165;28;20047;-63
2024/03/30 10:47:37;;;;;;;2.50;2.30;;;15.10;99.90;;;;;;4954112;28;20118;-63
2024/03/30 10:50:04;;;;;;;2.40;1.98;;;15.00;99.90;;;;;;4960129;28;20125;-63
2024/03/30 10:52:30;;;;;;;3.28;2.65;;;15.00;99.90;;;;;;4960642;28;20047;-63
2024/03/30 10:54:57;;;;;;;3.10;2.13;;;14.90;99.90;;;;;;4960903;28;20085;-63
2024/03/30 10:57:24;;;;;;;2.50;2.30;;;14.90;99.90;;;;;;4961819;28;20050;-63
2024/03/30 10:59:51;;;;;;;3.97;2.38;;;14.90;99.90;;;;;;4962461;28;20050;-63
2024/03/30 11:02:20;;;;;;;4.15;2.25;;;15.00;99.90;;;;;;4956078;28;20133;-63
2024/03/30 11:04:47;;;;;;;2.58;2.33;;;15.00;99.90;;;;;;4961785;28;20141;-63
2024/03/30 11:07:13;;;;;;;6.05;2.15;;;15.00;99.90;;;;;;4959967;28;20047;-63
2024/03/30 11:09:43;;;;;;;6.97;2.60;;;15.10;99.90;;;;;;4962306;28;20042;-63
2024/03/30 11:12:10;;;;;;;5.43;3.03;;;15.10;99.90;;;;;;4962694;28;20058;-63
2024/03/30 11:14:37;;;;;;;6.15;2.03;;;15.10;99.90;;;;;;4961918;28;20383;-63
2024/03/30 11:17:13;;;;;;;10.57;2.78;;;15.20;99.90;;;;;;4962443;28;20055;-63
2024/03/30 11:19:50;;;;;;;6.82;2.45;;;15.20;99.90;;;;;;4959955;28;20129;-63
2024/03/30 11:22:54;;;;;;;6.35;2.65;;;15.20;99.90;;;;;;4962186;28;20054;-63
2024/03/30 11:25:26;;;;;;;11.75;2.72;;;15.20;99.90;;;;;;4953073;28;20047;-63
2024/03/30 11:28:23;;;;;;;7.53;2.35;;;15.40;99.90;;;;;;4961686;28;20058;-63
2024/03/30 11:30:58;;;;;;;8.82;2.53;;;15.50;99.90;;;;;;4958454;28;20047;-63
2024/03/30 11:33:55;;;;;;;14.93;2.47;;;15.60;99.90;;;;;;4959678;28;20046;-63
2024/03/30 11:36:39;;;;;;;8.65;2.60;;;15.70;99.90;;;;;;4947542;28;20067;-63
2024/03/30 11:39:21;;;;;;;10.95;2.90;;;15.80;99.90;;;;;;4960905;28;20529;-63
2024/03/30 11:41:51;;;;;;;8.20;2.20;;;15.90;23.80;;;;;;4962315;28;20070;-63
2024/03/30 11:44:21;;;;;;;18.20;2.38;;;16.10;99.90;;;;;;4958999;28;20584;-63
2024/03/30 11:46:49;;;;;;;16.52;2.50;;;16.10;1.00;;;;;;4960377;28;20394;-63
2024/03/30 11:49:18;;;;;;;14.68;2.50;;;16.20;1.00;;;;;;4965142;28;20099;-63
2024/03/30 11:51:44;;;;;;;18.90;4.28;;;16.30;1.00;;;;;;4965855;28;20409;-63
2024/03/30 11:54:34;;;;;;;16.80;2.45;;;16.50;35.50;;;;;;4964725;28;20083;-62
2024/03/30 11:57:13;;;;;;;13.73;2.28;;;16.70;1.00;;;;;;4964632;28;20118;-63
2024/03/30 11:59:42;;;;;;;13.30;2.35;;;17.00;1.00;;;;;;4964096;28;20166;-62
2024/03/30 12:02:09;;;;;;;7.95;1.98;;;17.10;99.90;;;;;;4964421;28;20042;-63
2024/03/30 12:04:46;;;;;;;20.00;3.00;;;17.00;99.90;;;;;;4963116;28;20117;-63
2024/03/30 12:07:19;;;;;;;15.32;1.95;;;16.80;99.90;;;;;;4965470;28;20117;-63
2024/03/30 12:09:48;;;;;;;9.27;2.28;;;16.60;99.90;;;;;;4962207;28;20451;-63
2024/03/30 12:12:23;;;;;;;24.83;3.58;;;16.50;99.90;;;;;;4947883;28;20109;-63
2024/03/30 12:14:52;;;;;;;21.42;2.85;;;16.40;99.90;;;;;;4965161;28;20084;-63
2024/03/30 12:17:18;;;;;;;11.37;2.43;;;16.40;99.90;;;;;;4965380;28;20567;-63
2024/03/30 12:19:46;;;;;;;9.48;2.35;;;16.30;99.90;;;;;;4955218;28;20474;-63
2024/03/30 12:22:12;;;;;;;13.90;1.80;;;16.20;99.90;;;;;;4964287;28;20482;-62
2024/03/30 12:24:38;;;;;;;13.30;2.17;;;16.20;99.90;;;;;;4963769;28;20078;-63
2024/03/30 12:27:05;;;;;;;13.68;2.67;;;16.20;99.90;;;;;;4963106;28;20099;-63
2024/03/30 12:29:31;;;;;;;20.50;3.10;;;16.20;99.90;;;;;;4964110;28;20453;-63
2024/03/30 12:31:57;;;;;;;24.77;2.67;;;16.20;99.90;;;;;;4964744;28;20055;-63
2024/03/30 12:34:24;;;;;;;14.75;2.38;;;16.20;99.90;;;;;;4964783;28;20610;-63
2024/03/30 12:36:53;;;;;;;11.05;2.15;;;16.30;99.90;;;;;;4964951;28;20058;-63
2024/03/30 12:39:21;;;;;;;13.48;2.42;;;16.30;99.90;;;;;;4965024;28;20058;-62
2024/03/30 12:41:48;;;;;;;19.73;2.85;;;16.30;99.90;;;;;;4965097;28;20389;-63
2024/03/30 12:44:14;;;;;;;26.98;2.63;;;16.40;99.90;;;;;;4962508;28;20039;-63
2024/03/30 12:46:40;;;;;;;17.02;2.10;;;16.40;99.90;;;;;;4966295;28;20050;-63
2024/03/30 12:49:07;;;;;;;14.32;2.88;;;16.40;99.90;;;;;;4962999;28;20499;-62
2024/03/30 12:51:52;;;;;;;19.13;3.33;;;16.50;99.90;;;;;;4966519;28;20489;-62
2024/03/30 12:54:18;;;;;;;19.95;2.13;;;16.50;99.90;;;;;;4960443;28;20047;-63
2024/03/30 12:56:44;;;;;;;24.20;2.97;;;16.50;99.90;;;;;;4960018;28;20129;-62
2024/03/30 12:59:10;;;;;;;21.02;3.20;;;16.50;99.90;;;;;;4964032;28;20035;-63